createdAt,value
2022-12-08T00:01:40.845Z,10.77
2022-12-08T00:04:09.094Z,12.03
2022-12-08T00:06:58.805Z,15.53
2022-12-08T00:09:36.316Z,11.17
2022-12-08T00:12:08.498Z,8.43
2022-12-08T00:14:38.280Z,9.93
2022-12-08T00:17:07.652Z,7.83
2022-12-08T00:19:35.329Z,8.20
2022-12-08T00:22:05.548Z,13.80
2022-12-08T00:24:35.801Z,7.70
2022-12-08T00:27:03.797Z,12.20
2022-12-08T00:29:32.111Z,8.40
2022-12-08T00:31:59.779Z,11.07
2022-12-08T00:34:27.540Z,11.63
2022-12-08T00:36:55.564Z,13.37
2022-12-08T00:39:25.110Z,9.80
2022-12-08T00:42:12.775Z,10.43
2022-12-08T00:44:41.469Z,9.40
2022-12-08T00:47:09.478Z,12.47
2022-12-08T00:49:37.537Z,10.63
2022-12-08T00:52:05.992Z,11.00
2022-12-08T00:54:35.051Z,8.67
2022-12-08T00:57:03.258Z,9.03
2022-12-08T00:59:31.388Z,7.50
2022-12-08T01:01:59.229Z,9.10
2022-12-08T01:04:27.681Z,10.03
2022-12-08T01:06:55.923Z,8.50
2022-12-08T01:09:23.619Z,11.47
2022-12-08T01:11:52.912Z,10.23
2022-12-08T01:14:21.380Z,10.37
2022-12-08T01:16:49.561Z,10.40
2022-12-08T01:19:18.015Z,9.00
2022-12-08T01:21:47.281Z,9.50
2022-12-08T01:24:16.160Z,9.50
2022-12-08T01:26:44.052Z,9.20
2022-12-08T01:29:13.925Z,9.43
2022-12-08T01:31:42.037Z,10.00
2022-12-08T01:34:11.516Z,9.47
2022-12-08T01:36:39.960Z,11.13
2022-12-08T01:39:09.814Z,8.80
2022-12-08T01:41:39.351Z,10.47
2022-12-08T01:44:41.290Z,8.03
2022-12-08T01:47:10.983Z,9.70
2022-12-08T01:49:39.602Z,10.23
2022-12-08T01:52:15.601Z,13.33
2022-12-08T01:54:53.999Z,9.67
2022-12-08T01:57:25.289Z,10.47
2022-12-08T02:00:00.716Z,13.83
2022-12-08T02:02:34.441Z,10.57
2022-12-08T02:05:04.327Z,7.67
2022-12-08T02:07:34.176Z,10.13
2022-12-08T02:10:02.427Z,8.10
2022-12-08T02:12:31.162Z,13.80
2022-12-08T02:15:04.696Z,13.40
2022-12-08T02:17:49.442Z,9.10
2022-12-08T02:20:28.639Z,12.17
2022-12-08T02:23:07.305Z,8.90
2022-12-08T02:25:49.136Z,9.73
2022-12-08T02:28:53.651Z,9.00
2022-12-08T02:31:36.121Z,11.77
2022-12-08T02:34:31.246Z,11.90
2022-12-08T02:37:08.032Z,10.27
2022-12-08T02:39:42.525Z,9.10
2022-12-08T02:42:18.264Z,9.50
2022-12-08T02:44:53.729Z,9.23
2022-12-08T02:47:24.827Z,8.20
2022-12-08T02:49:55.826Z,11.37
2022-12-08T02:52:46.975Z,8.67
2022-12-08T02:55:22.636Z,9.93
2022-12-08T02:58:18.433Z,12.00
2022-12-08T03:01:00.322Z,11.10
2022-12-08T03:03:36.579Z,11.80
2022-12-08T03:06:17.248Z,10.50
2022-12-08T03:08:54.046Z,14.20
2022-12-08T03:11:25.946Z,13.37
2022-12-08T03:13:57.918Z,10.23
2022-12-08T03:16:28.594Z,10.93
2022-12-08T03:19:04.622Z,10.57
2022-12-08T03:21:35.991Z,8.70
2022-12-08T03:24:07.948Z,10.30
2022-12-08T03:26:40.146Z,10.97
2022-12-08T03:29:08.729Z,9.13
2022-12-08T03:31:42.407Z,9.53
2022-12-08T03:34:14.112Z,12.57
2022-12-08T03:36:45.328Z,10.43
2022-12-08T03:39:13.620Z,8.10
2022-12-08T03:41:41.555Z,9.70
2022-12-08T03:44:09.717Z,11.53
2022-12-08T03:46:37.521Z,8.70
2022-12-08T03:49:05.289Z,9.17
2022-12-08T03:51:33.018Z,15.20
2022-12-08T03:54:04.796Z,9.73
2022-12-08T03:56:34.594Z,12.37
2022-12-08T03:59:02.640Z,11.03
2022-12-08T04:01:30.996Z,10.77
2022-12-08T04:03:58.972Z,9.33
2022-12-08T04:06:27.344Z,12.20
2022-12-08T04:08:55.067Z,9.50
2022-12-08T04:11:24.796Z,9.37
2022-12-08T04:13:52.445Z,10.20
2022-12-08T04:16:22.730Z,8.90
2022-12-08T04:18:50.567Z,8.00
2022-12-08T04:21:18.700Z,12.60
2022-12-08T04:23:47.436Z,9.00
2022-12-08T04:26:16.524Z,9.50
2022-12-08T04:28:45.926Z,8.33
2022-12-08T04:31:14.026Z,10.77
2022-12-08T04:33:41.849Z,8.10
2022-12-08T04:36:11.052Z,10.37
2022-12-08T04:38:39.081Z,13.63
2022-12-08T04:41:10.199Z,10.60
2022-12-08T04:43:38.057Z,15.07
2022-12-08T04:46:10.200Z,18.87
2022-12-08T04:48:39.164Z,18.07
2022-12-08T04:51:08.611Z,20.13
2022-12-08T04:53:36.482Z,19.03
2022-12-08T04:56:05.066Z,22.30
2022-12-08T04:58:33.194Z,26.23
2022-12-08T05:01:00.863Z,19.80
2022-12-08T05:03:30.629Z,15.33
2022-12-08T05:06:00.765Z,16.63
2022-12-08T05:08:29.686Z,18.13
2022-12-08T05:11:03.494Z,18.87
2022-12-08T05:13:31.683Z,14.30
2022-12-08T05:16:04.519Z,14.10
2022-12-08T05:18:34.393Z,10.60
2022-12-08T05:21:02.254Z,17.50
2022-12-08T05:23:30.618Z,14.50
2022-12-08T05:25:58.822Z,12.60
2022-12-08T05:28:43.636Z,14.50
2022-12-08T05:31:13.185Z,15.70
2022-12-08T05:33:42.319Z,12.60
2022-12-08T05:36:11.369Z,12.77
2022-12-08T05:38:39.679Z,11.67
2022-12-08T05:41:08.293Z,8.50
2022-12-08T05:43:36.400Z,13.43
2022-12-08T05:46:04.213Z,13.47
2022-12-08T05:48:32.501Z,10.80
2022-12-08T05:51:02.550Z,11.93
2022-12-08T05:53:31.620Z,10.70
2022-12-08T05:55:59.934Z,11.23
2022-12-08T05:58:27.547Z,10.53
2022-12-08T06:00:55.195Z,14.10
2022-12-08T06:03:23.301Z,12.50
2022-12-08T06:05:51.649Z,12.37
2022-12-08T06:08:20.787Z,15.18
2022-12-08T06:10:49.103Z,9.83
2022-12-08T06:13:16.884Z,12.03
2022-12-08T06:15:44.853Z,11.80
2022-12-08T06:18:13.210Z,15.63
2022-12-08T06:20:43.390Z,11.20
2022-12-08T06:23:11.094Z,9.87
2022-12-08T06:25:40.107Z,13.47
2022-12-08T06:28:08.457Z,14.50
2022-12-08T06:30:36.449Z,11.73
2022-12-08T06:33:04.247Z,14.90
2022-12-08T06:35:31.947Z,15.10
2022-12-08T06:37:59.593Z,12.40
2022-12-08T06:40:27.209Z,14.80
2022-12-08T06:42:56.243Z,13.63
2022-12-08T06:45:25.550Z,11.30
2022-12-08T06:47:53.249Z,13.10
2022-12-08T06:50:21.064Z,9.80
2022-12-08T06:52:59.529Z,10.33
2022-12-08T06:58:21.113Z,14.30
2022-12-08T07:00:48.818Z,10.07
2022-12-08T07:03:16.851Z,12.90
2022-12-08T07:05:44.931Z,11.47
2022-12-08T07:08:12.751Z,12.63
2022-12-08T07:10:40.596Z,10.80
2022-12-08T07:13:08.338Z,11.30
2022-12-08T07:15:37.582Z,12.10
2022-12-08T07:18:05.725Z,12.40
2022-12-08T07:20:33.529Z,11.50
2022-12-08T07:23:01.623Z,11.40
2022-12-08T07:25:29.210Z,13.50
2022-12-08T07:27:56.910Z,17.37
2022-12-08T07:30:24.626Z,15.80
2022-12-08T07:32:53.599Z,14.77
2022-12-08T07:35:22.966Z,15.13
2022-12-08T07:37:50.865Z,16.37
2022-12-08T07:40:18.582Z,17.33
2022-12-08T07:42:46.620Z,17.40
2022-12-08T07:45:14.349Z,16.00
2022-12-08T07:47:43.300Z,15.27
2022-12-08T07:50:12.676Z,17.90
2022-12-08T07:52:40.286Z,12.40
2022-12-08T07:55:09.204Z,15.03
2022-12-08T07:57:36.868Z,12.00
2022-12-08T08:00:06.562Z,14.77
2022-12-08T08:02:39.965Z,16.30
2022-12-08T08:05:09.219Z,15.97
2022-12-08T08:07:38.735Z,16.77
2022-12-08T08:10:08.348Z,14.03
2022-12-08T08:12:36.556Z,17.40
2022-12-08T08:15:07.352Z,11.53
2022-12-08T08:17:36.128Z,14.60
2022-12-08T08:20:06.912Z,13.50
2022-12-08T08:22:36.085Z,13.00
2022-12-08T08:25:05.628Z,13.13
2022-12-08T08:27:33.657Z,14.60
2022-12-08T08:30:01.566Z,13.47
2022-12-08T08:32:33.050Z,15.17
2022-12-08T08:35:01.108Z,15.67
2022-12-08T08:37:28.981Z,12.10
2022-12-08T08:39:57.552Z,12.43
2022-12-08T08:42:26.958Z,13.23
2022-12-08T08:44:54.853Z,13.07
2022-12-08T08:47:24.165Z,15.70
2022-12-08T08:49:51.796Z,13.00
2022-12-08T08:52:19.907Z,13.13
2022-12-08T08:54:47.925Z,14.30
2022-12-08T08:57:18.420Z,15.43
2022-12-08T08:59:49.695Z,14.80
2022-12-08T09:02:18.996Z,12.93
2022-12-08T09:04:47.265Z,10.77
2022-12-08T09:07:15.990Z,12.17
2022-12-08T09:09:44.331Z,15.90
2022-12-08T09:12:13.591Z,12.07
2022-12-08T09:14:42.088Z,12.63
2022-12-08T09:17:11.165Z,11.97
2022-12-08T09:19:39.161Z,15.50
2022-12-08T09:22:06.930Z,13.97
2022-12-08T09:24:35.043Z,11.13
2022-12-08T09:27:02.688Z,13.10
2022-12-08T09:29:35.666Z,11.47
2022-12-08T09:32:04.555Z,14.20
2022-12-08T09:34:33.778Z,15.07
2022-12-08T09:37:02.537Z,14.00
2022-12-08T09:39:30.604Z,10.80
2022-12-08T09:42:02.127Z,10.23
2022-12-08T09:44:47.614Z,13.27
2022-12-08T09:47:23.009Z,12.17
2022-12-08T09:50:00.936Z,13.13
2022-12-08T09:52:34.973Z,12.50
2022-12-08T09:55:12.399Z,10.53
2022-12-08T09:57:40.597Z,13.33
2022-12-08T10:00:13.249Z,12.23
2022-12-08T10:02:43.458Z,12.30
2022-12-08T10:05:16.013Z,10.40
2022-12-08T10:07:48.893Z,11.10
2022-12-08T10:10:27.788Z,10.57
2022-12-08T10:13:00.316Z,9.77
2022-12-08T10:15:42.120Z,8.90
2022-12-08T10:18:16.866Z,13.50
2022-12-08T10:20:48.599Z,11.27
2022-12-08T10:23:25.922Z,10.10
2022-12-08T10:25:59.765Z,10.97
2022-12-08T10:28:28.380Z,10.50
2022-12-08T10:30:59.117Z,14.70
2022-12-08T10:33:29.182Z,11.47
2022-12-08T10:36:02.247Z,20.90
2022-12-08T10:38:32.313Z,10.23
2022-12-08T10:41:06.176Z,10.97
2022-12-08T10:43:35.142Z,9.57
2022-12-08T10:46:11.615Z,10.30
2022-12-08T10:48:49.556Z,8.63
2022-12-08T10:51:29.116Z,9.43
2022-12-08T10:53:57.541Z,8.03
2022-12-08T10:56:28.583Z,8.40
2022-12-08T10:59:13.619Z,11.43
2022-12-08T11:01:43.216Z,8.50
2022-12-08T11:04:16.580Z,7.97
2022-12-08T11:06:46.667Z,8.40
2022-12-08T11:09:31.874Z,8.37
2022-12-08T11:12:00.763Z,12.97
2022-12-08T11:14:30.432Z,6.63
2022-12-08T11:17:07.087Z,8.37
2022-12-08T11:19:38.939Z,6.40
2022-12-08T11:22:25.548Z,5.10
2022-12-08T11:25:11.216Z,6.33
2022-12-08T11:27:41.853Z,8.30
2022-12-08T11:30:16.179Z,6.60
2022-12-08T11:32:46.219Z,6.90
2022-12-08T11:35:21.708Z,11.13
2022-12-08T11:37:50.895Z,8.37
2022-12-08T11:40:24.438Z,9.60
2022-12-08T11:42:59.996Z,6.90
2022-12-08T11:45:34.064Z,7.87
2022-12-08T11:48:11.528Z,7.30
2022-12-08T11:50:46.484Z,7.57
2022-12-08T11:53:23.911Z,9.13
2022-12-08T11:55:56.139Z,8.50
2022-12-08T11:58:30.099Z,7.20
2022-12-08T12:00:58.614Z,8.20
2022-12-08T12:03:32.639Z,10.83
2022-12-08T12:06:38.058Z,6.50
2022-12-08T12:09:17.613Z,11.47
2022-12-08T12:12:16.082Z,5.93
2022-12-08T12:15:08.232Z,6.53
2022-12-08T12:17:43.160Z,7.67
2022-12-08T12:20:17.268Z,7.13
2022-12-08T12:22:48.242Z,5.47
2022-12-08T12:25:34.009Z,5.30
2022-12-08T12:28:05.094Z,5.93
2022-12-08T12:30:50.878Z,5.60
2022-12-08T12:33:19.655Z,6.67
2022-12-08T12:35:49.177Z,5.67
2022-12-08T12:38:40.654Z,4.93
2022-12-08T12:41:11.602Z,6.43
2022-12-08T12:43:40.691Z,5.27
2022-12-08T12:46:54.010Z,5.80
2022-12-08T12:49:51.379Z,8.07
2022-12-08T12:52:40.259Z,4.90
2022-12-08T12:55:52.519Z,6.40
2022-12-08T12:58:34.237Z,7.63
2022-12-08T13:01:40.236Z,6.40
2022-12-08T13:04:10.552Z,5.67
2022-12-08T13:06:42.475Z,6.93
2022-12-08T13:09:25.300Z,6.33
2022-12-08T13:11:56.263Z,6.60
2022-12-08T13:14:35.453Z,6.27
2022-12-08T13:17:09.225Z,9.10
2022-12-08T13:19:40.802Z,7.43
2022-12-08T13:22:45.011Z,5.67
2022-12-08T13:25:48.419Z,6.80
2022-12-08T13:28:23.504Z,6.87
2022-12-08T13:30:54.010Z,4.37
2022-12-08T13:33:29.140Z,5.70
2022-12-08T13:36:15.831Z,5.90
2022-12-08T13:38:47.237Z,6.60
2022-12-08T13:41:21.811Z,5.97
2022-12-08T13:44:50.277Z,4.37
2022-12-08T13:47:16.770Z,6.27
2022-12-08T13:58:20.310Z,3.63
2022-12-08T14:01:05.733Z,2.73
2022-12-08T14:04:04.616Z,3.50
2022-12-08T14:06:38.111Z,3.37
2022-12-08T14:09:11.539Z,5.13
2022-12-08T14:11:42.311Z,4.27
2022-12-08T14:14:32.625Z,3.80
2022-12-08T14:17:07.810Z,5.33
2022-12-08T14:19:37.734Z,6.60
2022-12-08T14:22:12.222Z,4.53
2022-12-08T14:24:42.208Z,4.70
2022-12-08T14:27:14.477Z,9.93
2022-12-08T14:29:45.409Z,4.90
2022-12-08T14:32:39.912Z,3.73
2022-12-08T14:35:20.741Z,4.60
2022-12-08T14:37:50.517Z,8.93
2022-12-08T14:40:24.290Z,4.83
2022-12-08T14:42:56.091Z,3.70
2022-12-08T14:45:24.615Z,5.80
2022-12-08T14:47:52.306Z,2.90
2022-12-08T14:50:42.453Z,4.27
2022-12-08T14:53:18.897Z,4.37
2022-12-08T14:55:49.019Z,3.20
2022-12-08T14:58:20.520Z,4.50
2022-12-08T15:00:52.382Z,2.97
2022-12-08T15:03:23.694Z,4.80
2022-12-08T15:05:54.376Z,3.13
2022-12-08T15:08:22.269Z,4.03
2022-12-08T15:11:20.178Z,4.70
2022-12-08T15:13:50.145Z,4.20
2022-12-08T15:16:30.453Z,5.30
2022-12-08T15:19:16.647Z,4.93
2022-12-08T15:21:47.824Z,3.60
2022-12-08T15:24:16.771Z,6.20
2022-12-08T15:26:49.128Z,5.90
2022-12-08T15:29:22.261Z,10.77
2022-12-08T15:31:50.243Z,4.70
2022-12-08T15:34:18.005Z,5.80
2022-12-08T15:36:47.147Z,4.10
2022-12-08T15:39:31.758Z,5.40
2022-12-08T15:42:00.556Z,9.33
2022-12-08T15:44:29.182Z,7.30
2022-12-08T15:46:57.292Z,8.67
2022-12-08T15:49:26.306Z,7.50
2022-12-08T15:52:05.038Z,7.63
2022-12-08T15:54:38.987Z,6.87
2022-12-08T15:57:44.278Z,6.80
2022-12-08T15:59:55.597Z,8.70
2022-12-08T16:02:25.284Z,6.97
2022-12-08T16:05:40.149Z,7.47
2022-12-08T16:07:43.302Z,6.77
2022-12-08T16:10:17.488Z,6.20
2022-12-08T16:15:59.815Z,7.17
2022-12-08T16:18:34.525Z,6.90
2022-12-08T16:21:12.503Z,8.27
2022-12-08T16:23:51.869Z,6.80
2022-12-08T16:27:35.096Z,7.27
2022-12-08T16:29:17.628Z,7.53
2022-12-08T16:31:45.410Z,7.17
2022-12-08T16:34:13.870Z,4.70
2022-12-08T16:36:41.803Z,6.77
2022-12-08T16:39:14.604Z,7.67
2022-12-08T16:42:00.133Z,6.03
2022-12-08T16:44:27.875Z,6.23
2022-12-08T16:46:56.401Z,9.63
2022-12-08T16:49:25.626Z,9.50
2022-12-08T16:51:53.715Z,6.30
2022-12-08T16:54:23.188Z,7.80
2022-12-08T16:56:50.897Z,10.57
2022-12-08T16:59:18.841Z,8.67
2022-12-08T17:01:47.351Z,6.67
2022-12-08T17:04:30.982Z,9.63
2022-12-08T17:07:00.380Z,10.50
2022-12-08T17:09:31.494Z,5.83
2022-12-08T17:12:03.711Z,10.03
2022-12-08T17:14:34.164Z,8.20
2022-12-08T17:17:02.044Z,7.80
2022-12-08T17:19:30.530Z,9.17
2022-12-08T17:21:58.979Z,7.77
2022-12-08T17:24:29.173Z,6.40
2022-12-08T17:26:58.741Z,5.53
2022-12-08T17:29:26.509Z,8.47
2022-12-08T17:31:54.517Z,7.37
2022-12-08T17:34:22.737Z,8.80
2022-12-08T17:36:50.457Z,5.67
2022-12-08T17:39:19.322Z,8.47
2022-12-08T17:41:47.604Z,7.13
2022-12-08T17:44:18.587Z,7.43
2022-12-08T17:46:52.469Z,7.37
2022-12-08T17:49:23.953Z,7.90
2022-12-08T17:51:53.707Z,8.80
2022-12-08T17:54:21.894Z,7.50
2022-12-08T17:56:49.624Z,8.20
2022-12-08T17:59:19.481Z,9.27
2022-12-08T18:01:48.054Z,10.20
2022-12-08T18:04:15.984Z,8.73
2022-12-08T18:06:44.200Z,6.97
2022-12-08T18:09:12.136Z,4.97
2022-12-08T18:11:39.928Z,8.73
2022-12-08T18:14:10.718Z,6.27
2022-12-08T18:16:42.336Z,6.60
2022-12-08T18:19:12.338Z,6.27
2022-12-08T18:21:40.894Z,10.97
2022-12-08T18:24:09.968Z,8.20
2022-12-08T18:26:38.148Z,9.10
2022-12-08T18:29:05.804Z,6.53
2022-12-08T18:31:34.620Z,9.10
2022-12-08T18:34:06.302Z,12.67
2022-12-08T18:36:34.357Z,12.30
2022-12-08T18:39:07.224Z,12.57
2022-12-08T18:41:38.221Z,11.87
2022-12-08T18:44:06.076Z,8.03
2022-12-08T18:46:34.754Z,10.77
2022-12-08T18:49:04.197Z,12.37
2022-12-08T18:51:33.231Z,12.23
2022-12-08T18:54:04.747Z,8.90
2022-12-08T18:56:34.753Z,8.67
2022-12-08T18:59:06.567Z,7.67
2022-12-08T19:01:37.261Z,7.27
2022-12-08T19:06:58.168Z,8.33
2022-12-08T19:09:26.825Z,10.07
2022-12-08T19:11:54.969Z,24.70
2022-12-08T19:14:27.925Z,17.27
2022-12-08T19:16:56.429Z,12.70
2022-12-08T19:19:25.635Z,14.03
2022-12-08T19:21:53.869Z,11.73
2022-12-08T19:24:21.614Z,13.40
2022-12-08T19:26:49.276Z,9.13
2022-12-08T19:29:16.956Z,10.83
2022-12-08T19:31:45.721Z,8.13
2022-12-08T19:34:15.020Z,9.37
2022-12-08T19:36:45.493Z,9.07
2022-12-08T19:39:33.979Z,10.93
2022-12-08T19:42:19.319Z,9.00
2022-12-08T19:44:56.051Z,11.00
2022-12-08T19:47:25.768Z,11.40
2022-12-08T19:49:55.020Z,13.90
2022-12-08T19:52:23.991Z,10.80
2022-12-08T19:54:52.023Z,10.50
2022-12-08T19:57:20.796Z,9.37
2022-12-08T19:59:53.021Z,6.70
2022-12-08T20:02:24.261Z,9.30
2022-12-08T20:04:52.543Z,9.43
2022-12-08T20:07:21.814Z,9.70
2022-12-08T20:09:50.786Z,11.97
2022-12-08T20:12:18.848Z,12.18
2022-12-08T20:14:46.675Z,12.90
2022-12-08T20:17:14.397Z,11.53
2022-12-08T20:19:42.473Z,13.10
2022-12-08T20:22:10.108Z,12.50
2022-12-08T20:24:38.241Z,11.67
2022-12-08T20:27:07.340Z,13.50
2022-12-08T20:29:35.312Z,11.57
2022-12-08T20:32:03.058Z,10.70
2022-12-08T20:34:31.345Z,8.90
2022-12-08T20:36:59.121Z,10.80
2022-12-08T20:39:27.268Z,12.40
2022-12-08T20:41:56.271Z,13.73
2022-12-08T20:44:25.357Z,12.77
2022-12-08T20:46:53.059Z,13.70
2022-12-08T20:49:21.223Z,11.10
2022-12-08T20:51:50.171Z,13.67
2022-12-08T20:54:18.201Z,11.83
2022-12-08T20:56:48.597Z,15.50
2022-12-08T20:59:18.152Z,9.97
2022-12-08T21:01:48.044Z,16.17
2022-12-08T21:04:16.718Z,14.60
2022-12-08T21:06:45.168Z,12.50
2022-12-08T21:09:13.329Z,16.60
2022-12-08T21:11:41.255Z,15.50
2022-12-08T21:14:09.185Z,9.97
2022-12-08T21:16:37.901Z,11.33
2022-12-08T21:19:07.269Z,11.23
2022-12-08T21:21:35.863Z,12.00
2022-12-08T21:24:04.130Z,11.23
2022-12-08T21:26:32.240Z,13.27
2022-12-08T21:29:00.030Z,12.27
2022-12-08T21:31:29.784Z,10.60
2022-12-08T21:33:57.637Z,11.87
2022-12-08T21:36:27.476Z,10.70
2022-12-08T21:38:56.856Z,10.37
2022-12-08T21:41:39.833Z,7.67
2022-12-08T21:44:09.917Z,8.60
2022-12-08T21:46:39.313Z,8.97
2022-12-08T21:49:07.439Z,9.73
2022-12-08T21:51:41.753Z,7.97
2022-12-08T21:54:13.558Z,9.80
2022-12-08T21:56:47.213Z,7.93
2022-12-08T21:59:15.393Z,10.30
2022-12-08T22:01:43.770Z,10.17
2022-12-08T22:04:12.118Z,8.07
2022-12-08T22:06:41.821Z,12.57
2022-12-08T22:09:14.629Z,6.43
2022-12-08T22:11:44.465Z,9.97
2022-12-08T22:14:14.821Z,9.93
2022-12-08T22:16:44.000Z,8.60
2022-12-08T22:19:12.179Z,8.20
2022-12-08T22:21:42.013Z,9.70
2022-12-08T22:24:10.262Z,7.87
2022-12-08T22:26:38.176Z,10.27
2022-12-08T22:29:06.188Z,11.00
2022-12-08T22:31:34.927Z,9.80
2022-12-08T22:34:03.370Z,8.70
2022-12-08T22:36:31.845Z,10.00
2022-12-08T22:39:02.787Z,8.40
2022-12-08T22:41:31.461Z,10.63
2022-12-08T22:44:00.528Z,11.07
2022-12-08T22:46:28.940Z,9.50
2022-12-08T22:48:56.845Z,9.57
2022-12-08T22:51:25.684Z,11.03
2022-12-08T22:53:55.008Z,7.07
2022-12-08T22:56:25.084Z,8.23
2022-12-08T22:58:52.876Z,8.20
2022-12-08T23:01:26.300Z,14.03
2022-12-08T23:03:54.257Z,8.77
2022-12-08T23:06:22.900Z,10.53
2022-12-08T23:08:51.824Z,7.67
2022-12-08T23:11:21.790Z,8.53
2022-12-08T23:13:51.118Z,7.27
2022-12-08T23:16:19.667Z,8.10
2022-12-08T23:18:48.315Z,6.97
2022-12-08T23:21:19.917Z,10.20
2022-12-08T23:23:48.749Z,10.13
2022-12-08T23:26:19.890Z,8.27
2022-12-08T23:28:48.151Z,6.20
2022-12-08T23:31:17.772Z,9.90
2022-12-08T23:33:46.553Z,10.17
2022-12-08T23:36:15.747Z,18.57
2022-12-08T23:38:44.210Z,8.70
2022-12-08T23:41:14.202Z,9.37
2022-12-08T23:43:45.881Z,6.47
2022-12-08T23:46:14.321Z,10.30
2022-12-08T23:48:44.227Z,12.67
2022-12-08T23:51:12.667Z,6.20
2022-12-08T23:53:41.592Z,7.80
2022-12-08T23:56:10.738Z,9.50
2022-12-08T23:58:39.276Z,9.30
